createdAt,value
2022-07-27T00:04:57.202Z,2.60
2022-07-27T00:15:03.022Z,2.00
2022-07-27T00:25:10.112Z,2.90
2022-07-27T00:35:15.910Z,1.90
2022-07-27T00:45:21.714Z,2.40
2022-07-27T00:55:27.687Z,2.80
2022-07-27T01:05:42.393Z,1.90
2022-07-27T01:15:49.895Z,2.50
2022-07-27T01:25:55.877Z,2.10
2022-07-27T01:36:01.659Z,1.60
2022-07-27T01:46:08.122Z,2.50
2022-07-27T01:56:14.608Z,2.30
2022-07-27T02:06:20.427Z,4.00
2022-07-27T02:16:26.340Z,2.70
2022-07-27T02:26:32.391Z,2.20
2022-07-27T02:36:38.154Z,2.70
2022-07-27T02:46:44.081Z,2.90
2022-07-27T02:56:50.262Z,1.70
2022-07-27T03:06:56.136Z,1.90
2022-07-27T03:17:02.216Z,4.20
2022-07-27T03:27:08.289Z,3.10
2022-07-27T03:37:15.296Z,3.40
2022-07-27T03:47:21.202Z,2.90
2022-07-27T03:57:27.025Z,4.10
2022-07-27T04:07:32.874Z,3.40
2022-07-27T04:17:54.737Z,4.40
2022-07-27T04:28:03.280Z,5.10
2022-07-27T04:38:09.088Z,2.60
2022-07-27T04:48:15.310Z,2.30
2022-07-27T04:58:21.210Z,1.20
2022-07-27T05:08:27.124Z,1.00
2022-07-27T05:18:33.002Z,0.80
2022-07-27T05:28:39.068Z,1.20
2022-07-27T05:38:45.030Z,1.00
2022-07-27T05:48:50.907Z,0.90
2022-07-27T05:58:56.993Z,0.70
2022-07-27T06:09:03.185Z,0.60
2022-07-27T06:19:09.175Z,1.00
2022-07-27T06:29:15.406Z,0.80
2022-07-27T06:39:21.707Z,1.20
2022-07-27T06:49:27.501Z,1.60
2022-07-27T06:59:43.365Z,1.70
2022-07-27T07:19:54.149Z,3.20
2022-07-27T07:30:00.129Z,3.50
2022-07-27T07:50:37.307Z,5.90
2022-07-27T08:00:43.968Z,2.40
2022-07-27T08:10:49.884Z,1.00
2022-07-27T08:20:56.084Z,1.20
2022-07-27T08:31:02.133Z,1.20
2022-07-27T08:41:23.469Z,0.60
2022-07-27T08:51:30.181Z,0.80
2022-07-27T09:01:36.669Z,0.70
2022-07-27T09:11:42.746Z,0.70
2022-07-27T09:21:48.595Z,1.00
2022-07-27T09:31:54.768Z,1.10
2022-07-27T09:42:02.949Z,1.10
2022-07-27T09:52:09.937Z,0.50
2022-07-27T10:02:17.553Z,0.40
2022-07-27T10:12:24.070Z,1.10
2022-07-27T10:22:51.616Z,0.90
2022-07-27T10:32:57.485Z,0.70
2022-07-27T10:43:17.951Z,0.50
2022-07-27T10:53:55.009Z,0.40
2022-07-27T11:04:11.326Z,0.70
2022-07-27T11:14:18.804Z,0.90
2022-07-27T11:24:25.015Z,1.00
2022-07-27T11:34:32.532Z,1.70
2022-07-27T11:44:42.257Z,0.90
2022-07-27T11:54:53.412Z,0.80
2022-07-27T12:05:02.957Z,1.50
2022-07-27T12:25:45.059Z,0.90
2022-07-27T12:35:50.856Z,0.50
2022-07-27T12:45:57.495Z,0.70
2022-07-27T12:56:06.536Z,0.80
2022-07-27T13:06:13.289Z,1.40
2022-07-27T13:16:19.796Z,0.70
2022-07-27T13:26:25.762Z,1.00
2022-07-27T13:36:33.786Z,1.20
2022-07-27T13:46:39.684Z,1.10
2022-07-27T13:56:46.190Z,0.90
2022-07-27T14:06:51.947Z,0.70
2022-07-27T14:16:58.065Z,1.70
2022-07-27T14:27:04.007Z,1.00
2022-07-27T14:37:09.972Z,1.20
2022-07-27T14:47:16.125Z,1.00
2022-07-27T14:57:21.894Z,0.90
2022-07-27T15:07:28.064Z,0.60
2022-07-27T15:17:34.573Z,1.20
2022-07-27T15:27:44.331Z,0.90
2022-07-27T15:37:54.315Z,0.90
2022-07-27T15:48:01.120Z,1.40
2022-07-27T15:58:07.998Z,0.70
2022-07-27T16:08:15.019Z,1.10
2022-07-27T16:18:21.217Z,1.20
2022-07-27T16:28:28.961Z,0.90
2022-07-27T16:38:35.046Z,0.40
2022-07-27T16:48:45.107Z,1.20
2022-07-27T16:58:51.749Z,0.70
2022-07-27T17:08:57.801Z,1.20
2022-07-27T17:19:03.650Z,0.80
2022-07-27T17:29:09.611Z,1.70
2022-07-27T17:39:17.252Z,2.20
2022-07-27T17:49:23.131Z,1.10
2022-07-27T17:59:37.618Z,1.10
2022-07-27T18:09:44.544Z,0.90
2022-07-27T18:19:50.347Z,0.90
2022-07-27T18:29:56.282Z,2.10
2022-07-27T18:40:03.753Z,3.10
2022-07-27T18:50:11.017Z,1.60
2022-07-27T19:00:18.103Z,2.60
2022-07-27T19:10:25.252Z,1.40
2022-07-27T19:20:31.247Z,2.00
2022-07-27T19:30:38.801Z,1.70
2022-07-27T19:40:46.041Z,1.30
2022-07-27T19:50:51.992Z,1.40
2022-07-27T20:00:58.385Z,1.60
2022-07-27T20:11:04.276Z,1.80
2022-07-27T20:21:22.503Z,1.30
2022-07-27T20:31:29.819Z,1.50
2022-07-27T20:41:36.026Z,1.70
2022-07-27T20:51:42.221Z,1.20
2022-07-27T21:01:48.099Z,1.90
2022-07-27T21:11:54.151Z,3.40
2022-07-27T21:22:00.218Z,5.50
2022-07-27T21:32:06.428Z,4.20
2022-07-27T21:42:12.414Z,4.30
2022-07-27T21:52:18.184Z,4.80
2022-07-27T22:02:27.520Z,3.50
2022-07-27T22:12:34.610Z,2.00
2022-07-27T22:22:40.479Z,1.40
2022-07-27T22:32:46.139Z,2.80
2022-07-27T22:42:52.075Z,3.20
2022-07-27T22:52:58.620Z,4.30
2022-07-27T23:03:04.443Z,3.40
2022-07-27T23:13:10.244Z,3.80
2022-07-27T23:23:16.891Z,3.00
2022-07-27T23:33:22.961Z,2.50
2022-07-27T23:43:29.270Z,2.70
2022-07-27T23:53:34.976Z,2.40
